Time;durP1;ratioP1;P1;durP2;ratioP2;P2;SDS_P1;SDS_P2;PMS_P1;PMS_P2;Temp;Humidity;BMP_temperature;BMP_pressure;BME280_temperature;BME280_humidity;BME280_pressure;Samples;Min_cycle;Max_cycle;Signal;HPM_P1;HPM_P2
2023/01/01 05:03:41;;;;;;;2.93;2.33;;;13.70;99.90;;;;;;6052623;23;20434;-65
2023/01/01 05:06:09;;;;;;;4.30;2.37;;;13.80;99.90;;;;;;4981170;28;20449;-65
2023/01/01 05:08:37;;;;;;;2.20;1.90;;;13.90;99.90;;;;;;4977171;28;20552;-65
2023/01/01 05:11:04;;;;;;;2.73;1.90;;;14.00;99.90;;;;;;4978326;28;20422;-65
2023/01/01 05:13:30;;;;;;;2.00;1.87;;;14.10;99.90;;;;;;4991651;28;20519;-65
2023/01/01 05:15:55;;;;;;;1.73;1.63;;;14.10;99.90;;;;;;4977297;28;20896;-64
2023/01/01 05:18:21;;;;;;;4.93;2.47;;;14.20;99.90;;;;;;4977304;28;20184;-64
2023/01/01 05:20:47;;;;;;;1.50;1.40;;;14.20;99.90;;;;;;4966569;28;20189;-64
2023/01/01 05:23:15;;;;;;;3.17;2.00;;;14.20;99.90;;;;;;4957520;28;20187;-65
2023/01/01 05:25:41;;;;;;;2.03;1.90;;;14.30;99.90;;;;;;4957905;28;20200;-65
2023/01/01 05:28:07;;;;;;;2.17;1.63;;;14.30;99.90;;;;;;4959779;28;20456;-65
2023/01/01 05:30:32;;;;;;;1.87;1.60;;;14.30;99.90;;;;;;4977040;28;20525;-65
2023/01/01 05:32:58;;;;;;;1.70;1.60;;;14.40;99.90;;;;;;4976316;28;20219;-66
2023/01/01 05:35:24;;;;;;;1.77;1.67;;;14.50;99.90;;;;;;4975881;28;20305;-65
2023/01/01 05:37:50;;;;;;;2.10;1.50;;;14.50;99.90;;;;;;4976869;28;20184;-65
2023/01/01 05:40:16;;;;;;;2.50;1.97;;;14.60;99.90;;;;;;4957801;28;20180;-65
2023/01/01 05:42:42;;;;;;;2.20;1.50;;;14.60;99.90;;;;;;4955341;29;20476;-64
2023/01/01 05:45:08;;;;;;;2.53;1.80;;;14.80;99.90;;;;;;4948887;29;20656;-68
2023/01/01 05:47:34;;;;;;;1.50;1.30;;;14.80;99.90;;;;;;4938213;29;20216;-63
2023/01/01 05:49:59;;;;;;;5.20;1.80;;;14.90;99.90;;;;;;4971558;28;20931;-65
2023/01/01 05:52:25;;;;;;;3.03;1.87;;;15.00;99.90;;;;;;4976535;28;20184;-64
2023/01/01 05:54:50;;;;;;;2.20;1.50;;;15.10;99.90;;;;;;4976224;28;20231;-64
2023/01/01 05:57:16;;;;;;;4.10;1.60;;;15.10;99.90;;;;;;4976611;28;20179;-65
2023/01/01 05:59:41;;;;;;;1.43;1.33;;;15.10;99.90;;;;;;4962636;28;20180;-65
2023/01/01 06:02:07;;;;;;;4.37;1.87;;;15.10;99.90;;;;;;4955958;29;20682;-65
2023/01/01 06:04:32;;;;;;;1.90;1.80;;;15.00;99.90;;;;;;4956589;29;20287;-66
2023/01/01 06:06:58;;;;;;;1.50;1.40;;;15.00;99.90;;;;;;4957118;29;20207;-65
2023/01/01 06:09:24;;;;;;;1.87;1.77;;;15.00;99.90;;;;;;4966860;28;20668;-65
2023/01/01 06:11:49;;;;;;;4.03;2.00;;;15.00;99.90;;;;;;4975587;28;20177;-65
2023/01/01 06:14:15;;;;;;;2.30;2.13;;;14.90;99.90;;;;;;4960249;28;20204;-65
2023/01/01 06:16:41;;;;;;;2.53;1.33;;;14.90;99.90;;;;;;4957068;29;20176;-65
2023/01/01 06:19:07;;;;;;;2.73;1.60;;;14.90;99.90;;;;;;4964255;28;20186;-64
2023/01/01 06:21:32;;;;;;;1.30;1.20;;;14.90;99.90;;;;;;4976227;28;20416;-65
2023/01/01 06:23:59;;;;;;;1.47;1.37;;;14.90;99.90;;;;;;4975820;28;20218;-65
2023/01/01 06:26:31;;;;;;;1.83;1.70;;;14.90;99.90;;;;;;4963217;28;20180;-66
2023/01/01 06:28:57;;;;;;;2.73;1.77;;;14.90;99.90;;;;;;4956605;28;20803;-65
2023/01/01 06:31:24;;;;;;;2.57;1.67;;;14.90;99.90;;;;;;4955165;28;20475;-65
2023/01/01 06:33:50;;;;;;;1.77;1.67;;;14.90;99.90;;;;;;4956151;28;20468;-65
2023/01/01 06:36:18;;;;;;;1.60;1.50;;;14.90;99.90;;;;;;4966746;28;20423;-65
2023/01/01 06:38:47;;;;;;;2.97;1.60;;;14.90;99.90;;;;;;4975769;28;20415;-65
2023/01/01 06:41:21;;;;;;;1.70;1.60;;;14.90;99.90;;;;;;4975691;28;20916;-65
2023/01/01 06:43:46;;;;;;;1.43;1.13;;;14.90;99.90;;;;;;4962765;28;20485;-65
2023/01/01 06:46:19;;;;;;;1.77;1.60;;;14.90;99.90;;;;;;4956970;28;20420;-65
2023/01/01 06:48:47;;;;;;;2.57;2.37;;;14.80;99.90;;;;;;4956243;28;20681;-65
2023/01/01 06:51:15;;;;;;;1.83;1.73;;;14.80;99.90;;;;;;4958362;28;20479;-63
2023/01/01 06:53:41;;;;;;;1.70;1.50;;;14.70;99.90;;;;;;4967646;28;20455;-64
2023/01/01 06:56:07;;;;;;;2.23;1.20;;;14.70;99.90;;;;;;4975890;28;20407;-65
2023/01/01 06:58:33;;;;;;;1.43;1.33;;;14.70;99.90;;;;;;4957782;28;20517;-64
2023/01/01 07:01:03;;;;;;;2.00;1.40;;;14.60;99.90;;;;;;4956368;28;20444;-65
2023/01/01 07:03:29;;;;;;;1.63;1.10;;;14.70;99.90;;;;;;4955638;28;20466;-64
2023/01/01 07:05:54;;;;;;;1.77;1.67;;;14.80;99.90;;;;;;4955842;29;20447;-65
2023/01/01 07:08:20;;;;;;;1.37;1.10;;;14.90;99.90;;;;;;4955896;28;20259;-64
2023/01/01 07:10:45;;;;;;;2.77;1.67;;;15.00;99.90;;;;;;4955815;29;20169;-65
2023/01/01 07:13:11;;;;;;;1.10;1.10;;;15.10;99.90;;;;;;4955544;29;20219;-65
2023/01/01 07:15:37;;;;;;;1.47;1.37;;;15.10;99.90;;;;;;4956042;28;20198;-65
2023/01/01 07:18:02;;;;;;;1.93;1.80;;;15.10;99.90;;;;;;4973312;28;20195;-64
2023/01/01 07:20:28;;;;;;;2.27;1.50;;;15.10;99.90;;;;;;4955776;28;20204;-65
2023/01/01 07:22:53;;;;;;;1.33;1.27;;;15.10;99.90;;;;;;4954983;29;20235;-64
2023/01/01 07:25:19;;;;;;;5.70;1.50;;;15.10;99.90;;;;;;4954822;28;20216;-65
2023/01/01 07:27:45;;;;;;;3.13;1.60;;;15.00;99.90;;;;;;4973233;28;20234;-64
2023/01/01 07:30:11;;;;;;;4.00;1.37;;;15.10;99.90;;;;;;4970259;28;20973;-65
2023/01/01 07:32:37;;;;;;;3.73;2.00;;;15.10;99.90;;;;;;4956415;28;20200;-65
2023/01/01 07:35:03;;;;;;;1.40;1.30;;;15.20;99.90;;;;;;4955489;28;20189;-66
2023/01/01 07:37:28;;;;;;;2.47;1.63;;;15.30;99.90;;;;;;4955587;28;20515;-65
2023/01/01 07:39:54;;;;;;;3.07;1.47;;;15.40;99.90;;;;;;4955419;29;20421;-64
2023/01/01 07:42:19;;;;;;;2.30;2.10;;;15.50;99.90;;;;;;4955466;28;20192;-65
2023/01/01 07:44:45;;;;;;;2.10;1.47;;;15.60;99.90;;;;;;4962667;28;20250;-65
2023/01/01 07:47:25;;;;;;;1.93;1.40;;;15.70;99.90;;;;;;4974974;28;20196;-65
2023/01/01 07:49:51;;;;;;;1.63;1.30;;;15.70;99.90;;;;;;4974950;28;20677;-65
2023/01/01 07:52:17;;;;;;;1.90;1.80;;;15.80;99.90;;;;;;4974590;28;20411;-65
2023/01/01 07:54:43;;;;;;;1.50;1.40;;;15.80;99.90;;;;;;4973947;28;20463;-64
2023/01/01 07:57:09;;;;;;;1.30;1.20;;;15.70;99.90;;;;;;4976193;28;20414;-65
2023/01/01 07:59:35;;;;;;;2.90;1.87;;;15.70;99.90;;;;;;4977051;28;20191;-64
2023/01/01 08:02:01;;;;;;;2.83;2.00;;;15.60;99.90;;;;;;4970002;28;20432;-65
2023/01/01 08:04:27;;;;;;;3.73;2.60;;;15.40;99.90;;;;;;4958317;28;20874;-64
2023/01/01 08:06:53;;;;;;;2.43;1.83;;;15.40;99.90;;;;;;4956595;29;20524;-64
2023/01/01 08:09:19;;;;;;;2.83;1.93;;;15.30;99.90;;;;;;4957828;28;20184;-65
2023/01/01 08:11:44;;;;;;;4.20;2.70;;;15.20;99.90;;;;;;4957569;29;20408;-65
2023/01/01 08:14:11;;;;;;;2.50;2.23;;;15.10;99.90;;;;;;4957547;28;20201;-65
2023/01/01 08:16:36;;;;;;;2.00;1.90;;;15.10;99.90;;;;;;4958904;28;20412;-65
2023/01/01 08:19:02;;;;;;;1.60;1.50;;;15.00;99.90;;;;;;4956387;29;20428;-65
2023/01/01 08:21:28;;;;;;;2.63;2.43;;;15.00;99.90;;;;;;4955145;29;20180;-66
2023/01/01 08:23:54;;;;;;;2.40;2.20;;;15.00;99.90;;;;;;4954753;28;20746;-65
2023/01/01 08:26:29;;;;;;;2.80;1.30;;;15.00;99.90;;;;;;4956015;28;20431;-63
2023/01/01 08:28:55;;;;;;;1.73;1.63;;;15.00;99.90;;;;;;4966206;28;20196;-65
2023/01/01 08:31:22;;;;;;;2.50;2.07;;;15.00;99.90;;;;;;4982642;28;20444;-63
2023/01/01 08:33:47;;;;;;;1.70;1.60;;;15.00;99.90;;;;;;4972717;28;20787;-65
2023/01/01 08:36:15;;;;;;;1.70;1.60;;;15.10;99.90;;;;;;4966500;28;20424;-65
2023/01/01 08:38:41;;;;;;;1.83;1.70;;;15.30;99.90;;;;;;4959628;28;20267;-66
2023/01/01 08:41:07;;;;;;;1.93;1.83;;;15.40;99.90;;;;;;4958525;28;20427;-63
2023/01/01 08:43:32;;;;;;;2.47;1.80;;;15.50;99.90;;;;;;4952878;29;20387;-62
2023/01/01 08:45:58;;;;;;;1.67;1.57;;;15.60;99.90;;;;;;4942076;29;20472;-65
2023/01/01 08:48:24;;;;;;;1.80;1.70;;;15.80;99.90;;;;;;4951458;28;20249;-65
2023/01/01 08:50:59;;;;;;;1.60;1.50;;;16.00;99.90;;;;;;4978242;28;20182;-66
2023/01/01 08:53:25;;;;;;;2.90;2.70;;;16.40;99.70;;;;;;4977690;28;20541;-66
2023/01/01 08:55:59;;;;;;;2.40;2.20;;;16.70;99.10;;;;;;4963961;28;20460;-66
2023/01/01 08:58:25;;;;;;;2.40;1.50;;;17.10;98.70;;;;;;4963255;28;20437;-66
2023/01/01 09:00:53;;;;;;;2.30;1.80;;;17.30;98.00;;;;;;4977769;28;20471;-65
2023/01/01 09:03:18;;;;;;;2.47;1.80;;;17.70;97.90;;;;;;4964966;28;20433;-65
2023/01/01 09:05:44;;;;;;;2.20;1.67;;;18.00;97.30;;;;;;4958091;29;20482;-63
2023/01/01 09:08:14;;;;;;;2.00;1.90;;;18.30;97.00;;;;;;4959573;28;20451;-68
2023/01/01 09:10:42;;;;;;;1.70;1.60;;;18.60;96.50;;;;;;4968403;28;20832;-64
2023/01/01 09:13:12;;;;;;;2.80;1.93;;;18.90;96.10;;;;;;4977000;28;20750;-68
2023/01/01 09:15:38;;;;;;;2.60;2.10;;;19.10;95.30;;;;;;4977248;28;20428;-66
2023/01/01 09:18:04;;;;;;;3.30;2.80;;;19.00;95.40;;;;;;4975010;28;20412;-70
2023/01/01 09:20:29;;;;;;;4.20;2.60;;;18.80;95.20;;;;;;4975865;28;20786;-72
2023/01/01 09:22:55;;;;;;;2.60;2.27;;;18.50;95.40;;;;;;4976939;28;20415;-67
2023/01/01 09:25:21;;;;;;;4.07;2.47;;;18.30;95.70;;;;;;4968190;28;20291;-68
2023/01/01 09:27:46;;;;;;;2.63;2.10;;;18.10;96.00;;;;;;4958595;28;20212;-66
2023/01/01 09:30:12;;;;;;;6.13;2.27;;;18.00;96.00;;;;;;4949818;29;20264;-66
2023/01/01 09:32:38;;;;;;;2.43;2.23;;;18.00;96.10;;;;;;4956943;28;20531;-68
2023/01/01 09:35:04;;;;;;;2.63;1.80;;;17.90;96.00;;;;;;4950164;28;20511;-67
2023/01/01 09:37:30;;;;;;;3.03;2.60;;;17.80;96.30;;;;;;4958519;28;20195;-64
2023/01/01 09:39:56;;;;;;;3.63;2.40;;;17.90;96.30;;;;;;4948710;28;20948;-64
2023/01/01 09:42:51;;;;;;;2.67;2.27;;;17.90;96.30;;;;;;4951381;28;20551;-68
2023/01/01 09:45:24;;;;;;;4.03;2.50;;;18.00;96.50;;;;;;4956488;28;20671;-67
2023/01/01 09:47:59;;;;;;;3.27;2.70;;;18.10;96.20;;;;;;4951554;28;20618;-64
2023/01/01 09:50:38;;;;;;;2.27;2.07;;;18.20;96.00;;;;;;4938122;29;20413;-63
2023/01/01 09:53:17;;;;;;;2.43;2.23;;;18.30;95.90;;;;;;4947854;28;20437;-64
2023/01/01 09:55:55;;;;;;;3.90;2.60;;;18.30;96.00;;;;;;4972088;28;20456;-64
2023/01/01 09:58:25;;;;;;;2.60;2.40;;;18.50;96.00;;;;;;4951567;28;20422;-63
2023/01/01 10:00:54;;;;;;;3.63;2.60;;;18.70;96.20;;;;;;4953938;28;20445;-70
2023/01/01 10:03:29;;;;;;;2.50;2.30;;;18.90;96.00;;;;;;4953992;28;20512;-65
2023/01/01 10:06:16;;;;;;;3.00;2.70;;;19.20;95.70;;;;;;4975869;28;20798;-69
2023/01/01 10:09:03;;;;;;;1.53;1.43;;;19.30;95.20;;;;;;4972381;28;20460;-66
2023/01/01 10:11:49;;;;;;;2.23;1.87;;;19.50;95.20;;;;;;4957125;28;20428;-66
2023/01/01 10:14:36;;;;;;;3.10;2.90;;;19.80;94.30;;;;;;4957613;28;20444;-64
2023/01/01 10:17:17;;;;;;;5.20;4.47;;;20.00;93.90;;;;;;4958620;28;20419;-65
2023/01/01 10:19:48;;;;;;;4.00;2.87;;;20.30;93.80;;;;;;4953885;28;20430;-65
2023/01/01 10:22:24;;;;;;;2.47;2.07;;;20.50;93.60;;;;;;4969970;28;20439;-63
2023/01/01 10:25:01;;;;;;;2.90;2.13;;;20.60;93.10;;;;;;4975703;28;20524;-64
2023/01/01 10:27:44;;;;;;;2.97;2.00;;;20.80;92.80;;;;;;4971014;28;20454;-65
2023/01/01 10:30:16;;;;;;;2.30;1.57;;;20.90;93.00;;;;;;4975401;28;20797;-65
2023/01/01 10:32:45;;;;;;;2.37;2.17;;;21.00;92.30;;;;;;4955696;28;20429;-65
2023/01/01 10:35:19;;;;;;;4.83;3.20;;;21.10;92.40;;;;;;4953241;28;20448;-65
2023/01/01 10:37:45;;;;;;;3.87;2.20;;;21.30;92.30;;;;;;4946279;28;20435;-64
2023/01/01 10:40:19;;;;;;;3.30;1.83;;;21.40;91.60;;;;;;4975178;28;20411;-64
2023/01/01 10:42:50;;;;;;;2.70;2.30;;;21.50;91.40;;;;;;4972195;28;20264;-64
2023/01/01 10:45:21;;;;;;;4.43;1.80;;;21.60;91.30;;;;;;4955131;29;20437;-65
2023/01/01 10:48:19;;;;;;;4.03;2.47;;;21.70;91.20;;;;;;4963011;28;20550;-65
2023/01/01 10:50:47;;;;;;;4.90;1.60;;;21.60;90.70;;;;;;4960452;28;20508;-63
2023/01/01 10:53:27;;;;;;;2.60;1.90;;;21.50;90.60;;;;;;4955907;29;20400;-62
2023/01/01 10:56:02;;;;;;;1.83;1.63;;;21.40;90.70;;;;;;4955929;28;20416;-65
2023/01/01 10:58:36;;;;;;;2.13;2.03;;;21.30;91.30;;;;;;4967150;28;20909;-64
2023/01/01 11:01:03;;;;;;;2.27;1.60;;;21.20;91.50;;;;;;4973574;28;20412;-64
2023/01/01 11:03:29;;;;;;;2.70;2.50;;;21.20;91.30;;;;;;4972872;28;20457;-64
2023/01/01 11:06:13;;;;;;;1.70;1.60;;;21.10;91.40;;;;;;4972394;28;20820;-64
2023/01/01 11:08:45;;;;;;;2.43;2.23;;;20.90;91.20;;;;;;4973159;28;20200;-64
2023/01/01 11:11:26;;;;;;;3.23;1.90;;;20.80;91.50;;;;;;4973233;28;20798;-65
2023/01/01 11:13:54;;;;;;;4.77;2.47;;;20.80;91.50;;;;;;4972922;28;20531;-64
2023/01/01 11:16:20;;;;;;;2.30;1.63;;;20.60;91.30;;;;;;4936721;29;20817;-63
2023/01/01 11:18:48;;;;;;;2.20;1.80;;;20.40;91.40;;;;;;4940015;28;20464;-64
2023/01/01 11:21:20;;;;;;;2.40;1.73;;;20.00;91.70;;;;;;4955927;28;20428;-64
2023/01/01 11:23:47;;;;;;;2.10;1.80;;;19.80;92.30;;;;;;4968833;28;20546;-64
2023/01/01 11:26:16;;;;;;;4.87;2.20;;;19.60;93.00;;;;;;4975052;28;20423;-63
2023/01/01 11:28:42;;;;;;;2.03;1.93;;;19.40;93.30;;;;;;4974976;28;20556;-64
2023/01/01 11:31:14;;;;;;;2.30;2.10;;;19.20;93.40;;;;;;4975039;28;20396;-64
2023/01/01 11:33:52;;;;;;;3.20;2.10;;;19.00;94.00;;;;;;4971145;28;20479;-64
2023/01/01 11:36:31;;;;;;;2.47;2.27;;;18.90;94.60;;;;;;4973151;28;20461;-64
2023/01/01 11:39:20;;;;;;;2.23;2.03;;;18.70;94.60;;;;;;4974773;28;20415;-64
2023/01/01 11:41:49;;;;;;;2.63;2.10;;;18.50;94.80;;;;;;4975097;28;20917;-64
2023/01/01 11:44:28;;;;;;;3.70;2.47;;;18.50;94.70;;;;;;4970700;28;21030;-64
2023/01/01 11:46:54;;;;;;;2.23;1.73;;;18.40;94.60;;;;;;4954194;28;20440;-65
2023/01/01 11:49:24;;;;;;;2.80;1.70;;;18.40;94.70;;;;;;4955669;29;20443;-63
2023/01/01 11:51:50;;;;;;;2.33;1.80;;;18.50;94.40;;;;;;4955495;28;20404;-64
2023/01/01 11:54:27;;;;;;;2.70;2.00;;;18.40;94.50;;;;;;4956572;28;20424;-64
2023/01/01 11:56:59;;;;;;;3.40;2.10;;;18.40;95.00;;;;;;4974482;28;20183;-64
2023/01/01 11:59:30;;;;;;;2.97;2.07;;;18.30;94.90;;;;;;4959185;28;20444;-63
2023/01/01 12:02:03;;;;;;;2.87;2.30;;;18.30;94.90;;;;;;4962674;28;20776;-64
2023/01/01 12:04:36;;;;;;;2.17;1.87;;;18.20;94.80;;;;;;4974011;28;20930;-64
2023/01/01 12:07:12;;;;;;;2.90;2.33;;;18.20;95.20;;;;;;4973639;28;20428;-64
2023/01/01 12:09:56;;;;;;;2.60;2.17;;;18.10;95.40;;;;;;4974815;28;20419;-63
2023/01/01 12:12:33;;;;;;;3.63;2.37;;;18.00;95.70;;;;;;4978623;28;20415;-64
2023/01/01 12:15:23;;;;;;;2.53;2.20;;;18.00;95.80;;;;;;4978099;28;20426;-63
2023/01/01 12:18:19;;;;;;;6.50;2.30;;;18.00;95.90;;;;;;4939751;28;20435;-64
2023/01/01 12:21:15;;;;;;;3.10;2.47;;;18.00;95.90;;;;;;4958364;29;20432;-65
2023/01/01 12:23:41;;;;;;;1.70;1.60;;;18.00;96.00;;;;;;4958647;28;20523;-64
2023/01/01 12:26:33;;;;;;;3.13;1.83;;;18.00;96.30;;;;;;4959304;29;20505;-64
2023/01/01 12:29:29;;;;;;;3.30;2.20;;;18.00;96.10;;;;;;4963272;28;20211;-64
2023/01/01 12:32:01;;;;;;;1.60;1.50;;;17.90;95.90;;;;;;4971315;28;20501;-65
2023/01/01 12:34:52;;;;;;;2.43;2.00;;;18.00;95.80;;;;;;4953147;28;20783;-64
2023/01/01 12:38:06;;;;;;;2.37;2.13;;;18.00;95.80;;;;;;4977466;28;20432;-64
2023/01/01 12:40:50;;;;;;;2.33;2.00;;;18.00;95.70;;;;;;4962306;28;20441;-63
2023/01/01 12:43:42;;;;;;;2.43;2.10;;;18.00;95.80;;;;;;4958242;28;20414;-63
2023/01/01 12:46:30;;;;;;;1.83;1.73;;;18.00;95.60;;;;;;4959006;28;20432;-63
2023/01/01 12:49:29;;;;;;;2.30;1.50;;;18.10;95.60;;;;;;4958480;28;20473;-63
2023/01/01 12:52:18;;;;;;;3.40;2.37;;;18.10;95.60;;;;;;4958404;29;20915;-63
2023/01/01 12:55:08;;;;;;;2.37;2.00;;;18.10;95.50;;;;;;4958103;28;20483;-63
2023/01/01 12:57:42;;;;;;;2.33;2.13;;;18.10;95.50;;;;;;4958305;29;20405;-64
2023/01/01 13:00:13;;;;;;;1.73;1.63;;;18.10;95.60;;;;;;4966384;28;20862;-65
2023/01/01 13:02:56;;;;;;;2.37;2.10;;;18.00;95.60;;;;;;4965226;28;20490;-64
2023/01/01 13:05:35;;;;;;;2.50;2.10;;;18.10;95.70;;;;;;4958291;28;20976;-64
2023/01/01 13:08:03;;;;;;;1.83;1.53;;;18.10;95.70;;;;;;4970056;28;20597;-63
2023/01/01 13:10:34;;;;;;;2.50;1.77;;;18.10;95.60;;;;;;4977771;28;20407;-64
2023/01/01 13:13:01;;;;;;;2.40;1.77;;;18.10;95.80;;;;;;4972713;28;20437;-64
2023/01/01 13:15:37;;;;;;;4.57;2.30;;;18.10;95.80;;;;;;4958625;28;20483;-63
2023/01/01 13:18:25;;;;;;;1.53;1.43;;;18.10;95.40;;;;;;4958060;29;20420;-63
2023/01/01 13:20:55;;;;;;;2.57;1.50;;;18.10;95.20;;;;;;4951223;28;20779;-64
2023/01/01 13:23:30;;;;;;;3.73;2.03;;;18.00;94.90;;;;;;4959174;28;20510;-64
2023/01/01 13:26:20;;;;;;;5.03;2.10;;;18.10;94.80;;;;;;4975908;28;20518;-64
2023/01/01 13:28:58;;;;;;;1.93;1.20;;;18.00;94.60;;;;;;4957656;29;21022;-63
2023/01/01 13:31:39;;;;;;;1.30;1.20;;;18.10;94.80;;;;;;4958155;29;20431;-64
2023/01/01 13:34:29;;;;;;;1.67;1.57;;;18.00;94.90;;;;;;4957139;29;20821;-63
2023/01/01 13:37:10;;;;;;;2.70;1.57;;;18.10;94.80;;;;;;4967576;28;20511;-63
2023/01/01 13:39:56;;;;;;;2.23;1.73;;;18.10;95.00;;;;;;4963350;28;20474;-63
2023/01/01 13:42:51;;;;;;;2.63;1.70;;;18.10;95.00;;;;;;4956366;29;20400;-64
2023/01/01 13:45:28;;;;;;;2.87;1.70;;;18.10;95.10;;;;;;4966745;28;20439;-63
2023/01/01 13:48:03;;;;;;;1.73;1.40;;;18.10;95.00;;;;;;4976416;28;20482;-63
2023/01/01 13:51:00;;;;;;;1.53;1.50;;;18.10;94.90;;;;;;4976858;28;20821;-63
2023/01/01 13:53:55;;;;;;;2.43;1.70;;;18.10;94.70;;;;;;4966072;28;20559;-63
2023/01/01 13:56:20;;;;;;;2.23;2.03;;;18.20;94.80;;;;;;4957195;28;20399;-63
2023/01/01 13:59:22;;;;;;;2.90;2.60;;;18.10;94.80;;;;;;4967280;28;20431;-63
2023/01/01 14:02:12;;;;;;;3.10;2.33;;;18.10;95.10;;;;;;4976359;28;20215;-63
2023/01/01 14:04:45;;;;;;;2.90;2.33;;;18.00;95.30;;;;;;4960516;28;20492;-63
2023/01/01 14:07:20;;;;;;;4.20;2.53;;;18.00;95.50;;;;;;4957962;28;20488;-63
2023/01/01 14:09:45;;;;;;;2.97;2.40;;;18.00;95.60;;;;;;4957075;28;20499;-63
2023/01/01 14:12:19;;;;;;;3.07;2.20;;;18.00;95.30;;;;;;4975566;28;20466;-63
2023/01/01 14:14:45;;;;;;;3.60;2.80;;;17.90;95.30;;;;;;4974510;28;20554;-62
2023/01/01 14:17:13;;;;;;;3.60;2.00;;;17.80;95.50;;;;;;4975811;28;20874;-63
2023/01/01 14:19:40;;;;;;;2.70;2.40;;;17.80;95.60;;;;;;4976145;28;20423;-64
2023/01/01 14:22:08;;;;;;;2.90;2.37;;;17.80;95.60;;;;;;4970997;28;20426;-63
2023/01/01 14:24:40;;;;;;;2.20;2.00;;;17.80;95.60;;;;;;4965693;28;20493;-63
2023/01/01 14:27:06;;;;;;;4.73;2.93;;;17.70;95.80;;;;;;4975981;28;20427;-64
2023/01/01 14:29:32;;;;;;;5.10;2.10;;;17.70;95.80;;;;;;4976160;28;20419;-63
2023/01/01 14:32:01;;;;;;;4.30;2.77;;;17.60;95.80;;;;;;4976080;28;20899;-63
2023/01/01 14:34:31;;;;;;;3.10;2.77;;;17.60;96.00;;;;;;4974879;28;20452;-64
2023/01/01 14:36:59;;;;;;;2.10;1.87;;;17.50;96.10;;;;;;4965738;28;20438;-62
2023/01/01 14:39:26;;;;;;;4.47;2.70;;;17.50;96.10;;;;;;4958502;28;20391;-63
2023/01/01 14:41:54;;;;;;;2.60;2.40;;;17.40;96.10;;;;;;4976182;28;20792;-64
2023/01/01 14:44:26;;;;;;;2.80;2.53;;;17.40;96.10;;;;;;4973521;28;20438;-63
2023/01/01 14:46:52;;;;;;;3.80;3.00;;;17.40;96.20;;;;;;4957906;28;20455;-63
2023/01/01 14:49:27;;;;;;;3.77;3.07;;;17.40;96.30;;;;;;4959500;28;20462;-63
2023/01/01 14:51:59;;;;;;;5.57;2.33;;;17.30;96.50;;;;;;4963490;28;20925;-63
2023/01/01 14:54:33;;;;;;;3.20;2.73;;;17.30;96.50;;;;;;4975434;28;20529;-63
2023/01/01 14:56:59;;;;;;;2.90;2.60;;;17.20;96.40;;;;;;4975561;28;20441;-63
2023/01/01 14:59:29;;;;;;;2.53;2.33;;;17.20;96.50;;;;;;4972696;28;20483;-64
2023/01/01 15:01:59;;;;;;;5.80;3.23;;;17.10;96.60;;;;;;4968915;28;20482;-63
2023/01/01 15:04:25;;;;;;;3.60;2.40;;;17.00;96.70;;;;;;4955654;28;20421;-62
2023/01/01 15:06:59;;;;;;;3.03;2.60;;;16.90;96.70;;;;;;4957031;28;20495;-63
2023/01/01 15:09:26;;;;;;;3.70;3.17;;;16.80;96.90;;;;;;4966677;28;20222;-63
2023/01/01 15:11:56;;;;;;;3.90;3.20;;;16.80;97.00;;;;;;4955901;28;20448;-63
2023/01/01 15:14:37;;;;;;;5.17;4.30;;;16.70;97.30;;;;;;4954360;29;20780;-63
2023/01/01 15:17:08;;;;;;;4.53;2.93;;;16.60;97.10;;;;;;4955804;28;20416;-63
2023/01/01 15:19:36;;;;;;;3.93;2.97;;;16.50;97.30;;;;;;4955841;28;20431;-63
2023/01/01 15:22:27;;;;;;;4.97;3.80;;;16.40;97.50;;;;;;4955772;28;20427;-64
2023/01/01 15:24:53;;;;;;;2.50;2.30;;;16.30;97.70;;;;;;4972003;28;20444;-62
2023/01/01 15:27:33;;;;;;;3.57;2.73;;;16.30;98.00;;;;;;4973126;28;20471;-63
2023/01/01 15:30:00;;;;;;;3.53;3.23;;;16.20;98.00;;;;;;4972804;28;20420;-63
2023/01/01 15:32:31;;;;;;;14.70;3.40;;;16.10;98.30;;;;;;4975029;28;20424;-64
2023/01/01 15:34:59;;;;;;;4.80;3.50;;;16.00;98.40;;;;;;4973120;28;20438;-64
2023/01/01 15:37:44;;;;;;;5.60;4.80;;;15.90;99.00;;;;;;4973010;28;20444;-63
2023/01/01 15:40:12;;;;;;;4.57;4.23;;;15.70;99.40;;;;;;4974478;28;20495;-64
2023/01/01 15:42:47;;;;;;;4.00;3.60;;;15.60;99.50;;;;;;4974670;28;20420;-65
2023/01/01 15:45:16;;;;;;;10.33;4.20;;;15.50;99.70;;;;;;4973599;28;20927;-63
2023/01/01 15:47:42;;;;;;;4.53;4.10;;;15.40;99.80;;;;;;4974543;28;20451;-64
2023/01/01 15:50:21;;;;;;;3.40;2.57;;;15.20;99.90;;;;;;4969244;28;20423;-63
2023/01/01 15:52:50;;;;;;;4.00;3.03;;;15.10;99.90;;;;;;4955806;28;20504;-64
2023/01/01 15:55:16;;;;;;;6.50;3.37;;;15.00;99.90;;;;;;4954104;28;20498;-64
2023/01/01 15:57:50;;;;;;;5.27;3.10;;;14.90;99.90;;;;;;4947017;28;20440;-64
2023/01/01 16:00:28;;;;;;;4.10;3.30;;;14.80;99.90;;;;;;4956704;28;20946;-63
2023/01/01 16:02:59;;;;;;;7.73;4.30;;;14.70;99.90;;;;;;4949658;29;20503;-63
2023/01/01 16:05:26;;;;;;;4.13;3.47;;;14.70;99.90;;;;;;4965135;28;20798;-63
2023/01/01 16:08:03;;;;;;;3.97;3.17;;;14.60;99.90;;;;;;4956691;28;20925;-62
2023/01/01 16:10:30;;;;;;;3.10;2.60;;;14.60;99.90;;;;;;4955123;28;22179;-63
2023/01/01 16:12:59;;;;;;;2.97;2.67;;;14.50;99.90;;;;;;4946151;28;20950;-64
2023/01/01 16:15:25;;;;;;;3.80;3.27;;;14.50;99.90;;;;;;4941419;28;20439;-63
2023/01/01 16:17:51;;;;;;;4.93;3.10;;;14.40;99.90;;;;;;4948129;28;20435;-63
2023/01/01 16:20:18;;;;;;;3.97;2.73;;;14.30;99.90;;;;;;4953853;29;20943;-63
2023/01/01 16:22:45;;;;;;;4.37;3.53;;;14.30;99.90;;;;;;4957419;28;20233;-63
2023/01/01 16:25:18;;;;;;;4.87;3.60;;;14.20;99.90;;;;;;4957099;28;20449;-63
2023/01/01 16:27:44;;;;;;;2.57;2.37;;;14.20;99.90;;;;;;4954714;28;20519;-63
2023/01/01 16:30:11;;;;;;;5.03;3.00;;;14.20;99.90;;;;;;4954560;28;20416;-63
2023/01/01 16:32:37;;;;;;;4.97;2.80;;;14.20;99.90;;;;;;4954545;28;20457;-64
2023/01/01 16:35:05;;;;;;;3.20;2.77;;;14.10;99.90;;;;;;4954655;28;20937;-65
2023/01/01 16:37:32;;;;;;;7.10;2.80;;;14.10;99.90;;;;;;4960259;28;20427;-65
2023/01/01 16:39:57;;;;;;;5.40;2.87;;;14.00;99.90;;;;;;4959465;28;20467;-68
2023/01/01 16:42:23;;;;;;;4.07;2.80;;;14.00;99.90;;;;;;4953634;29;20525;-64
2023/01/01 16:44:49;;;;;;;2.70;2.30;;;14.00;99.90;;;;;;4954448;28;20200;-64
2023/01/01 16:47:15;;;;;;;3.53;2.83;;;13.90;99.90;;;;;;4956861;28;21056;-64
2023/01/01 16:49:40;;;;;;;2.90;2.47;;;13.90;99.90;;;;;;4954798;28;20435;-64
2023/01/01 16:52:06;;;;;;;8.43;3.43;;;13.90;99.90;;;;;;4954515;28;20264;-66
2023/01/01 16:54:33;;;;;;;3.13;2.83;;;13.80;99.90;;;;;;4955214;28;20207;-69
2023/01/01 16:56:59;;;;;;;3.53;3.17;;;13.80;99.90;;;;;;4952382;28;20649;-66
2023/01/01 16:59:24;;;;;;;2.93;2.63;;;13.80;99.90;;;;;;4960905;28;20442;-66
2023/01/01 17:01:50;;;;;;;3.57;3.27;;;13.70;99.90;;;;;;4961833;29;20185;-69
2023/01/01 17:04:16;;;;;;;3.30;3.00;;;13.60;99.90;;;;;;4960612;29;20214;-67
2023/01/01 17:06:41;;;;;;;4.23;2.70;;;13.50;99.90;;;;;;4958659;29;20197;-67
2023/01/01 17:09:07;;;;;;;3.60;3.30;;;13.50;99.90;;;;;;4959227;28;20207;-68
2023/01/01 17:11:33;;;;;;;4.90;2.80;;;13.40;99.90;;;;;;4960033;28;20665;-65
2023/01/01 17:13:59;;;;;;;4.63;4.23;;;13.30;99.90;;;;;;4959419;28;20450;-65
2023/01/01 17:16:27;;;;;;;4.23;3.43;;;13.30;99.90;;;;;;4959578;28;20226;-65
2023/01/01 17:18:54;;;;;;;5.20;3.60;;;13.20;99.90;;;;;;4966249;28;20449;-64
2023/01/01 17:21:19;;;;;;;9.83;3.97;;;13.20;99.90;;;;;;4951876;28;20459;-64
2023/01/01 17:23:45;;;;;;;5.17;3.90;;;13.10;99.90;;;;;;4962848;28;20453;-66
2023/01/01 17:26:16;;;;;;;3.20;2.90;;;13.10;99.90;;;;;;4961854;28;20557;-66
2023/01/01 17:28:43;;;;;;;3.77;3.43;;;13.00;99.90;;;;;;4956775;29;21050;-65
2023/01/01 17:31:12;;;;;;;3.73;3.00;;;12.90;99.90;;;;;;4957018;28;20428;-64
2023/01/01 17:33:38;;;;;;;6.03;3.80;;;12.90;99.90;;;;;;4957001;28;20797;-66
2023/01/01 17:36:05;;;;;;;5.73;3.80;;;12.80;99.90;;;;;;4957219;28;20424;-68
2023/01/01 17:38:31;;;;;;;2.73;2.53;;;12.80;99.90;;;;;;4962273;28;20433;-66
2023/01/01 17:41:04;;;;;;;6.33;4.27;;;12.70;99.90;;;;;;4975561;28;20433;-68
2023/01/01 17:43:32;;;;;;;4.50;2.73;;;12.70;99.90;;;;;;4976416;28;20248;-67
2023/01/01 17:46:07;;;;;;;6.20;3.50;;;12.70;99.90;;;;;;4976402;28;20429;-66
2023/01/01 17:48:33;;;;;;;3.73;2.73;;;12.70;99.90;;;;;;4955615;28;20535;-67
2023/01/01 17:50:59;;;;;;;5.23;2.97;;;12.70;99.90;;;;;;4938032;29;20458;-67
2023/01/01 17:53:25;;;;;;;2.83;2.63;;;12.70;99.90;;;;;;4951936;28;20519;-68
2023/01/01 17:55:51;;;;;;;4.33;2.80;;;12.70;99.90;;;;;;4957921;28;20847;-71
2023/01/01 17:58:16;;;;;;;4.03;3.60;;;12.70;99.90;;;;;;4957288;29;20452;-64
2023/01/01 18:00:42;;;;;;;6.97;4.00;;;12.70;99.90;;;;;;4948008;29;20188;-65
2023/01/01 18:03:15;;;;;;;3.17;2.93;;;12.70;99.90;;;;;;4968200;28;20179;-66
2023/01/01 18:05:41;;;;;;;6.20;5.30;;;12.60;99.90;;;;;;4954608;29;20250;-66
2023/01/01 18:08:07;;;;;;;4.07;3.30;;;12.60;99.90;;;;;;4947698;28;20458;-62
2023/01/01 18:10:33;;;;;;;3.80;3.50;;;12.50;99.90;;;;;;4957034;29;20636;-66